METAR Formatted Surface Weather Observation
Issued by NWS

Home | Current Version | Previous Version | Text Only | Print | Product List | Glossary On
Versions: 1 2
000
SAUS45 KPSR 260758
MTRFHU
METAR KFHU 260756Z AUTO 00000KT 10SM FEW110 21/13 A3017 RMK AO2
SLP149 T02110128 $



USA.gov is the U.S. government's official web portal to all federal, state and local government web resources and services.